KB1DML Weather Reports


Display with metric or nautical units.
time (UTC)temp
F
wind
direction
speed
MPH
gust
MPH
rain 1hr
in
rain 24hr
in
rain mn
in
humidity
%
barometer
mb
20220527164516 78 158 5.0 13.0 0.00 0.00 0.00 71 1011.4
20220527164019 78 135 4.0 9.0 0.00 0.00 0.00 72 1011.5
20220527163519 78 135 5.0 13.0 0.00 0.00 0.00 73 1011.5
20220527163017 77 158 4.0 11.0 0.00 0.00 0.00 73 1011.6
20220527162519 78 158 6.0 14.0 0.00 0.00 0.00 72 1011.7
20220527162019 78 135 4.0 13.0 0.00 0.00 0.00 72 1011.7
20220527161519 77 135 3.0 8.0 0.00 0.00 0.00 73 1011.7
20220527161019 77 135 3.0 10.0 0.00 0.00 0.00 75 1011.7
20220527160519 77 158 4.0 13.0 0.00 0.00 0.00 74 1011.9
20220527160019 76 135 3.0 12.0 0.00 0.00 0.00 75 1011.9
20220527155519 76 158 4.0 14.0 0.00 0.00 0.00 75 1012.0
20220527155019 76 158 5.0 14.0 0.00 0.00 0.00 74 1012.1
20220527154519 76 180 4.0 13.0 0.00 0.00 0.00 75 1012.2
20220527154016 76 135 6.0 14.0 0.00 0.00 0.00 76 1012.1
20220527153519 76 135 5.0 15.0 0.00 0.00 0.00 75 1012.3
20220527153019 76 203 3.0 9.0 0.00 0.00 0.00 75 1012.3
20220527152519 76 135 2.0 10.0 0.00 0.00 0.00 75 1012.4
20220527152019 76 158 5.0 15.0 0.00 0.00 0.00 76 1012.5
20220527151516 75 225 4.0 13.0 0.00 0.00 0.00 76 1012.5
20220527151019 75 135 3.0 8.0 0.00 0.00 0.00 77 1012.6
20220527150519 75 225 3.0 7.0 0.00 0.00 0.00 76 1012.6
20220527150016 75 158 3.0 11.0 0.00 0.00 0.00 78 1012.6
20220527145519 75 158 6.0 12.0 0.00 0.00 0.00 77 1012.6
20220527145019 75 135 5.0 15.0 0.00 0.00 0.00 77 1012.7
20220527144516 75 158 5.0 11.0 0.00 0.00 0.00 77 1012.7
20220527144019 75 135 5.0 15.0 0.00 0.00 0.00 78 1012.7
20220527143519 75 135 4.0 14.0 0.00 0.00 0.00 76 1012.8
20220527143019 75 180 5.0 13.0 0.00 0.00 0.00 76 1012.9
20220527142519 76 158 4.0 12.0 0.00 0.00 0.00 75 1012.9
20220527142016 76 135 7.0 19.0 0.00 0.00 0.00 76 1012.9
20220527141519 76 203 4.0 11.0 0.00 0.00 0.00 76 1012.9
20220527141019 75 158 5.0 14.0 0.00 0.00 0.00 76 1013.0
20220527140519 75 158 4.0 14.0 0.00 0.00 0.00 78 1013.0
20220527140019 74 158 4.0 12.0 0.00 0.00 0.00 79 1013.0
20220527135519 74 225 3.0 13.0 0.00 0.00 0.00 79 1013.0
20220527135019 74 135 4.0 18.0 0.00 0.00 0.00 79 1013.1
20220527134519 74 135 4.0 18.0 0.00 0.00 0.00 79 1013.2
20220527134019 74 225 3.0 10.0 0.00 0.00 0.00 79 1013.1
20220527133516 74 135 4.0 12.0 0.00 0.00 0.00 78 1013.3
20220527133019 74 225 4.0 10.0 0.00 0.00 0.00 78 1013.2
20220527132516 74 158 4.0 10.0 0.00 0.00 0.00 78 1013.3
20220527132016 74 158 6.0 16.0 0.00 0.00 0.00 79 1013.3
20220527131516 73 225 3.0 9.0 0.00 0.00 0.00 81 1013.4
20220527131019 73 158 4.0 10.0 0.00 0.00 0.00 82 1013.3
20220527130519 72 158 6.0 13.0 0.00 0.00 0.00 83 1013.5
20220527130016 72 135 4.0 12.0 0.00 0.00 0.00 85 1013.6
20220527125519 72 248 3.0 9.0 0.00 0.00 0.00 85 1013.6
20220527125016 71 203 3.0 13.0 0.00 0.00 0.00 86 1013.6
20220527124519 71 180 3.0 13.0 0.00 0.00 0.00 87 1013.7
20220527124019 70 203 3.0 9.0 0.00 0.00 0.00 87 1013.7
20220527123519 70 135 3.0 9.0 0.00 0.00 0.00 87 1013.7
20220527123016 70 158 4.0 10.0 0.00 0.00 0.00 88 1013.8
20220527122519 69 135 4.0 16.0 0.00 0.00 0.00 88 1013.8
20220527122019 69 158 4.0 11.0 0.00 0.00 0.00 88 1013.9
20220527121516 69 135 3.0 8.0 0.00 0.00 0.00 88 1013.9
20220527121019 68 158 3.0 11.0 0.00 0.00 0.00 88 1014.0
20220527120519 68 158 4.0 12.0 0.00 0.00 0.00 88 1014.1
20220527120016 68 225 3.0 9.0 0.00 0.00 0.00 88 1014.2
20220527115518 68 158 3.0 9.0 0.00 0.00 0.00 88 1014.1
20220527115019 68 203 3.0 12.0 0.00 0.00 0.00 89 1014.1
20220527114516 68 158 3.0 12.0 0.00 0.00 0.00 89 1014.1
20220527114018 68 225 2.0 7.0 0.00 0.00 0.00 89 1014.1
20220527113516 67 180 2.0 7.0 0.00 0.00 0.00 89 1014.2
20220527113019 67 225 3.0 7.0 0.00 0.00 0.00 89 1014.2
20220527112518 67 158 3.0 9.0 0.00 0.00 0.00 89 1014.1
20220527112019 67 225 3.0 9.0 0.00 0.00 0.00 89 1014.2
20220527111519 67 225 2.0 5.0 0.00 0.00 0.00 89 1014.2
20220527111016 67 203 2.0 6.0 0.00 0.00 0.00 89 1014.2
20220527110518 67 158 3.0 9.0 0.00 0.00 0.00 89 1014.2
20220527110019 66 203 3.0 10.0 0.00 0.00 0.00 90 1014.2
20220527105519 66 203 4.0 13.0 0.00 0.00 0.00 89 1014.1
20220527105019 66 225 3.0 8.0 0.00 0.00 0.00 90 1014.2
20220527104518 66 158 3.0 8.0 0.00 0.00 0.00 90 1014.2
20220527104019 65 180 2.0 9.0 0.00 0.00 0.00 90 1014.2
20220527103516 65 158 3.0 10.0 0.00 0.00 0.00 90 1014.1
20220527103019 65 135 2.0 4.0 0.00 0.00 0.00 89 1014.1
20220527102516 64 135 2.0 6.0 0.00 0.00 0.00 89 1014.1
20220527102018 64 135 2.0 7.0 0.00 0.00 0.00 89 1014.2
20220527101518 64 135 4.0 9.0 0.00 0.00 0.00 89 1014.2
20220527101016 64 158 3.0 7.0 0.00 0.00 0.00 89 1014.3
20220527100519 64 135 3.0 9.0 0.00 0.00 0.00 89 1014.3
20220527100019 64 135 1.0 6.0 0.00 0.00 0.00 89 1014.4
20220527095516 64 135 1.0 7.0 0.00 0.00 0.00 89 1014.4
20220527095018 63 225 1.0 5.0 0.00 0.00 0.00 88 1014.3
20220527094518 63 225 2.0 10.0 0.00 0.00 0.00 88 1014.4
20220527094018 63 135 2.0 7.0 0.00 0.00 0.00 88 1014.4
20220527093519 63 158 2.0 6.0 0.00 0.00 0.00 88 1014.3
20220527093016 63 135 2.0 6.0 0.00 0.00 0.00 88 1014.3
20220527092516 63 158 3.0 10.0 0.00 0.00 0.00 88 1014.2
20220527092019 63 135 2.0 7.0 0.00 0.00 0.00 88 1014.3
20220527091516 63 158 2.0 5.0 0.00 0.00 0.00 88 1014.5
20220527091019 63 203 3.0 12.0 0.00 0.00 0.00 87 1014.5
20220527090518 63 180 3.0 11.0 0.00 0.00 0.00 87 1014.4
20220527090016 63 158 3.0 9.0 0.00 0.00 0.00 87 1014.4
20220527085518 63 180 2.0 9.0 0.00 0.00 0.00 87 1014.5
20220527085018 63 180 2.0 5.0 0.00 0.00 0.00 86 1014.5
20220527084519 63 203 1.0 7.0 0.00 0.00 0.00 86 1014.6
20220527084019 63 180 2.0 10.0 0.00 0.00 0.00 86 1014.7
20220527083519 62 180 1.0 5.0 0.00 0.00 0.00 86 1014.7
20220527083016 62 225 2.0 8.0 0.00 0.00 0.00 86 1014.7
20220527082518 62 225 2.0 7.0 0.00 0.00 0.00 86 1014.7
20220527082019 62 158 2.0 9.0 0.00 0.00 0.00 86 1014.7
20220527081516 62 180 2.0 6.0 0.00 0.00 0.00 85 1014.8
20220527081018 62 203 1.0 5.0 0.00 0.00 0.00 85 1014.9
20220527080516 62 180 1.0 6.0 0.00 0.00 0.00 85 1015.0
20220527080016 62 180 2.0 5.0 0.00 0.00 0.00 85 1015.1
20220527075519 62 135 2.0 6.0 0.00 0.00 0.00 84 1015.0
20220527075019 62 203 1.0 5.0 0.00 0.00 0.00 84 1015.1
20220527074518 62 225 2.0 5.0 0.00 0.00 0.00 83 1015.2
20220527074019 62 180 1.0 4.0 0.00 0.00 0.00 83 1015.3
20220527073515 62 135 1.0 5.0 0.00 0.00 0.00 83 1015.4
20220527073019 62 225 2.0 5.0 0.00 0.00 0.00 83 1015.4
20220527072516 62 158 2.0 5.0 0.00 0.00 0.00 83 1015.4
20220527072015 62 135 1.0 4.0 0.00 0.00 0.00 83 1015.4
20220527071519 62 135 2.0 5.0 0.00 0.00 0.00 82 1015.4
20220527071018 62 135 2.0 5.0 0.00 0.00 0.00 82 1015.5
20220527070518 62 158 2.0 5.0 0.00 0.00 0.00 82 1015.6
20220527070019 62 158 2.0 8.0 0.00 0.00 0.00 82 1015.7
20220527065518 62 135 2.0 8.0 0.00 0.00 0.00 82 1015.7
20220527065016 62 225 1.0 6.0 0.00 0.00 0.00 82 1015.9
20220527064519 63 135 2.0 7.0 0.00 0.00 0.00 82 1015.9
20220527064018 63 158 2.0 7.0 0.00 0.00 0.00 81 1015.9
20220527063519 63 158 2.0 8.0 0.00 0.00 0.00 81 1016.0
20220527063019 63 203 1.0 6.0 0.00 0.00 0.00 81 1016.0
20220527062516 63 180 2.0 9.0 0.00 0.00 0.00 81 1016.1
20220527062019 63 180 2.0 8.0 0.00 0.00 0.00 81 1016.2
20220527061519 63 225 2.0 7.0 0.00 0.00 0.00 81 1016.3
20220527061019 63 180 2.0 7.0 0.00 0.00 0.00 81 1016.3
20220527060519 63 203 1.0 5.0 0.00 0.00 0.00 80 1016.4
20220527060019 63 180 2.0 7.0 0.00 0.00 0.00 80 1016.5
20220527055515 63 180 2.0 7.0 0.00 0.00 0.00 80 1016.4
20220527055019 63 180 2.0 9.0 0.00 0.00 0.00 80 1016.6
20220527054516 63 158 3.0 8.0 0.00 0.00 0.00 80 1016.6
20220527054016 63 158 2.0 9.0 0.00 0.00 0.00 80 1016.7
20220527053518 63 180 3.0 7.0 0.00 0.00 0.00 80 1016.8
20220527053015 63 203 2.0 8.0 0.00 0.00 0.00 80 1016.8
20220527052519 63 225 2.0 8.0 0.00 0.00 0.00 80 1017.0
20220527052018 63 225 2.0 6.0 0.00 0.00 0.00 80 1017.0
20220527051518 63 135 2.0 8.0 0.00 0.00 0.00 80 1017.0
20220527051019 63 158 2.0 9.0 0.00 0.00 0.00 80 1017.1
20220527050516 63 180 3.0 11.0 0.00 0.00 0.00 80 1017.2
20220527050019 63 135 3.0 9.0 0.00 0.00 0.00 80 1017.1
20220527045518 63 203 3.0 7.0 0.00 0.00 0.00 80 1017.1
20220527045015 63 180 2.0 6.0 0.00 0.00 0.00 80 1017.1
20220527044515 63 225 2.0 9.0 0.00 0.00 0.00 80 1017.0
20220527044016 63 203 3.0 13.0 0.00 0.00 0.00 80 1017.1
20220527043519 63 135 4.0 13.0 0.00 0.00 0.00 80 1017.2
20220527043015 63 180 4.0 10.0 0.00 0.00 0.00 80 1017.1
20220527042518 63 180 3.0 13.0 0.00 0.00 0.00 80 1017.1
20220527042015 63 158 4.0 11.0 0.00 0.00 0.00 79 1017.1
20220527041519 63 225 2.0 6.0 0.00 0.00 0.00 79 1017.3
20220527041015 62 180 3.0 10.0 0.00 0.00 0.00 79 1017.3
20220527040518 62 180 2.0 8.0 0.00 0.00 0.00 79 1017.4
20220527040018 62 158 3.0 17.0 0.00 0.00 0.00 79 1017.4
20220527035516 62 135 3.0 14.0 0.00 0.00 0.00 78 1017.5
20220527035019 62 180 3.0 9.0 0.00 0.00 0.00 78 1017.6
20220527034516 62 158 3.0 9.0 0.00 0.00 0.00 78 1017.7
20220527034019 62 158 4.0 10.0 0.00 0.00 0.00 78 1017.6
20220527033519 62 158 3.0 16.0 0.00 0.00 0.00 78 1017.8
20220527033016 62 158 3.0 10.0 0.00 0.00 0.00 78 1018.0
20220527032519 63 225 2.0 10.0 0.00 0.00 0.00 77 1018.1
20220527032016 63 158 3.0 11.0 0.00 0.00 0.00 77 1018.1
20220527031519 63 158 2.0 9.0 0.00 0.00 0.00 77 1018.1
20220527031019 63 158 3.0 9.0 0.00 0.00 0.00 76 1018.2
20220527030516 63 158 3.0 9.0 0.00 0.00 0.00 76 1018.2
20220527030019 63 203 3.0 14.0 0.00 0.00 0.00 76 1018.3
20220527025516 63 203 2.0 8.0 0.00 0.00 0.00 75 1018.4
20220527025019 63 225 2.0 7.0 0.00 0.00 0.00 75 1018.4
20220527024516 63 158 3.0 11.0 0.00 0.00 0.00 75 1018.5
20220527024019 63 225 2.0 8.0 0.00 0.00 0.00 75 1018.5
20220527023519 63 180 2.0 9.0 0.00 0.00 0.00 74 1018.6
20220527023016 63 203 2.0 9.0 0.00 0.00 0.00 74 1018.6
20220527022519 63 180 2.0 8.0 0.00 0.00 0.00 74 1018.6
20220527022016 63 180 3.0 7.0 0.00 0.00 0.00 74 1018.6
20220527021519 63 203 3.0 8.0 0.00 0.00 0.00 73 1018.6
20220527021019 63 203 3.0 8.0 0.00 0.00 0.00 73 1018.6
20220527020519 63 135 3.0 10.0 0.00 0.00 0.00 73 1018.6
20220527020019 63 158 3.0 11.0 0.00 0.00 0.00 73 1018.6
20220527015516 63 113 1.0 5.0 0.00 0.00 0.00 73 1018.7
20220527015019 63 225 2.0 6.0 0.00 0.00 0.00 72 1018.7
20220527014516 63 180 3.0 8.0 0.00 0.00 0.00 72 1018.8
20220527014019 63 180 2.0 9.0 0.00 0.00 0.00 72 1018.7
20220527013516 63 180 2.0 9.0 0.00 0.00 0.00 72 1018.8
20220527013019 63 225 2.0 6.0 0.00 0.00 0.00 71 1018.8
20220527012519 63 180 2.0 7.0 0.00 0.00 0.00 71 1018.9
20220527012019 63 180 3.0 7.0 0.00 0.00 0.00 71 1018.7
20220527011519 63 180 2.0 6.0 0.00 0.00 0.00 71 1018.7
20220527011019 63 180 2.0 5.0 0.00 0.00 0.00 71 1018.6
20220527010519 63 180 2.0 5.0 0.00 0.00 0.00 70 1018.5
20220527010016 63 180 2.0 11.0 0.00 0.00 0.00 70 1018.5
20220527005519 64 180 3.0 15.0 0.00 0.00 0.00 70 1018.5
20220527005016 64 135 3.0 10.0 0.00 0.00 0.00 70 1018.5
20220527004516 64 180 3.0 8.0 0.00 0.00 0.00 70 1018.5
20220527004016 64 180 3.0 7.0 0.00 0.00 0.00 70 1018.5
20220527003519 64 158 2.0 6.0 0.00 0.00 0.00 69 1018.4
20220527003016 64 158 3.0 7.0 0.00 0.00 0.00 69 1018.5
20220527002519 64 158 3.0 13.0 0.00 0.00 0.00 69 1018.5
20220527002016 64 135 4.0 10.0 0.00 0.00 0.00 69 1018.5
20220527001519 64 158 4.0 13.0 0.00 0.00 0.00 68 1018.4
20220527001016 64 203 2.0 8.0 0.00 0.00 0.00 68 1018.5
20220527000519 65 135 3.0 11.0 0.00 0.00 0.00 67 1018.5
20220527000016 65 158 4.0 9.0 0.00 0.00 0.00 67 1018.5
20220526235519 65 158 4.0 10.0 0.00 0.00 0.00 67 1018.4
20220526235019 65 158 6.0 13.0 0.00 0.00 0.00 66 1018.4
20220526234519 65 158 4.0 9.0 0.00 0.00 0.00 66 1018.4
20220526234019 65 135 5.0 14.0 0.00 0.00 0.00 65 1018.6
20220526233519 65 180 6.0 15.0 0.00 0.00 0.00 65 1018.6
20220526233019 66 158 5.0 13.0 0.00 0.00 0.00 65 1018.6
20220526232519 66 158 6.0 16.0 0.00 0.00 0.00 64 1018.7
20220526232016 66 158 6.0 17.0 0.00 0.00 0.00 63 1018.7
20220526231519 66 158 6.0 16.0 0.00 0.00 0.00 63 1018.8
20220526231016 66 158 6.0 17.0 0.00 0.00 0.00 62 1018.8
20220526230519 66 158 5.0 14.0 0.00 0.00 0.00 62 1018.9
20220526230019 67 158 5.0 20.0 0.00 0.00 0.00 61 1018.9
20220526225519 67 158 6.0 13.0 0.00 0.00 0.00 61 1018.9
20220526225016 67 158 6.0 16.0 0.00 0.00 0.00 60 1019.1
20220526224516 67 158 8.0 17.0 0.00 0.00 0.00 60 1019.1
20220526224019 67 158 6.0 14.0 0.00 0.00 0.00 59 1019.1
20220526223519 67 158 5.0 11.0 0.00 0.00 0.00 59 1019.2
20220526223019 67 158 5.0 16.0 0.00 0.00 0.00 59 1019.3
20220526222519 68 158 6.0 15.0 0.00 0.00 0.00 58 1019.2
20220526222019 68 158 9.0 19.0 0.00 0.00 0.00 58 1019.3
20220526221519 68 158 6.0 18.0 0.00 0.00 0.00 58 1019.4
20220526221016 68 158 4.0 12.0 0.00 0.00 0.00 58 1019.5
20220526220516 68 135 6.0 20.0 0.00 0.00 0.00 58 1019.5
20220526220019 68 158 9.0 20.0 0.00 0.00 0.00 57 1019.6
20220526215519 68 135 7.0 21.0 0.00 0.00 0.00 57 1019.6
20220526215019 68 135 4.0 9.0 0.00 0.00 0.00 57 1019.7
20220526214519 68 158 6.0 18.0 0.00 0.00 0.00 57 1019.8
20220526214019 68 135 5.0 12.0 0.00 0.00 0.00 57 1019.9
20220526213519 68 158 7.0 20.0 0.00 0.00 0.00 56 1019.9
20220526213019 68 180 6.0 17.0 0.00 0.00 0.00 56 1019.9
20220526212519 69 158 6.0 15.0 0.00 0.00 0.00 56 1020.0
20220526212019 69 158 7.0 18.0 0.00 0.00 0.00 55 1019.9
20220526211519 69 135 5.0 12.0 0.00 0.00 0.00 54 1019.9
20220526211019 69 158 5.0 13.0 0.00 0.00 0.00 54 1019.9
20220526210519 69 158 9.0 22.0 0.00 0.00 0.00 53 1019.8
20220526210019 70 158 7.0 19.0 0.00 0.00 0.00 51 1019.8
20220526205519 70 180 5.0 22.0 0.00 0.00 0.00 51 1019.9
20220526205019 71 158 5.0 13.0 0.00 0.00 0.00 50 1019.9
20220526204516 71 203 4.0 14.0 0.00 0.00 0.00 50 1020.1
20220526204019 71 135 5.0 15.0 0.00 0.00 0.00 49 1020.0
20220526203516 70 180 4.0 16.0 0.00 0.00 0.00 50 1020.2
20220526203016 70 158 7.0 18.0 0.00 0.00 0.00 49 1020.1
20220526202519 70 158 7.0 17.0 0.00 0.00 0.00 47 1020.2
20220526202016 71 135 6.0 15.0 0.00 0.00 0.00 46 1020.2
20220526201516 71 135 5.0 14.0 0.00 0.00 0.00 46 1020.2
20220526201019 70 158 6.0 13.0 0.00 0.00 0.00 46 1020.3
20220526200519 70 180 8.0 20.0 0.00 0.00 0.00 45 1020.3
20220526200019 70 158 8.0 22.0 0.00 0.00 0.00 44 1020.3
20220526195519 71 158 6.0 16.0 0.00 0.00 0.00 42 1020.5
20220526195019 71 158 6.0 19.0 0.00 0.00 0.00 42 1020.5
20220526194519 70 158 7.0 20.0 0.00 0.00 0.00 41 1020.7
20220526194019 71 180 7.0 23.0 0.00 0.00 0.00 42 1020.7
20220526193519 71 158 5.0 15.0 0.00 0.00 0.00 40 1020.7
20220526193016 71 158 5.0 15.0 0.00 0.00 0.00 40 1020.9
20220526192519 71 158 7.0 16.0 0.00 0.00 0.00 40 1020.9
20220526192019 71 135 6.0 17.0 0.00 0.00 0.00 39 1021.0
20220526191519 71 135 5.0 14.0 0.00 0.00 0.00 39 1021.2
20220526191019 71 135 6.0 15.0 0.00 0.00 0.00 38 1021.4
20220526190519 70 135 5.0 14.0 0.00 0.00 0.00 39 1021.5
20220526190019 70 135 6.0 19.0 0.00 0.00 0.00 39 1021.7
20220526185519 70 158 3.0 10.0 0.00 0.00 0.00 41 1021.7
20220526185019 70 225 3.0 14.0 0.00 0.00 0.00 41 1021.7
20220526184519 70 180 4.0 15.0 0.00 0.00 0.00 39 1021.9
20220526184019 71 158 5.0 14.0 0.00 0.00 0.00 37 1022.0
20220526183519 71 225 3.0 11.0 0.00 0.00 0.00 39 1021.9
20220526183016 71 203 4.0 14.0 0.00 0.00 0.00 39 1021.9
20220526182519 71 203 4.0 12.0 0.00 0.00 0.00 40 1021.9
20220526182016 71 158 7.0 23.0 0.00 0.00 0.00 43 1021.9
20220526181519 71 158 7.0 19.0 0.00 0.00 0.00 44 1022.0
20220526181019 71 135 7.0 24.0 0.00 0.00 0.00 42 1022.1
20220526180519 73 158 7.0 23.0 0.00 0.00 0.00 39 1022.1
20220526180019 72 225 3.0 12.0 0.00 0.00 0.00 37 1022.1
20220526175519 73 203 4.0 16.0 0.00 0.00 0.00 36 1022.3
20220526175019 72 158 6.0 16.0 0.00 0.00 0.00 37 1022.4
20220526174519 73 135 7.0 19.0 0.00 0.00 0.00 35 1022.6
20220526174019 74 158 6.0 20.0 0.00 0.00 0.00 34 1022.7
20220526173519 74 135 6.0 17.0 0.00 0.00 0.00 34 1022.6
20220526173019 74 158 5.0 14.0 0.00 0.00 0.00 34 1022.6
20220526172519 74 135 5.0 11.0 0.00 0.00 0.00 33 1022.7
20220526172016 74 135 7.0 18.0 0.00 0.00 0.00 31 1022.8
20220526171516 73 135 8.0 18.0 0.00 0.00 0.00 31 1022.9
20220526171019 74 113 6.0 13.0 0.00 0.00 0.00 29 1023.1
20220526170519 73 135 4.0 15.0 0.00 0.00 0.00 30 1023.3
20220526170019 73 135 5.0 16.0 0.00 0.00 0.00 30 1023.2
20220526165519 74 135 6.0 14.0 0.00 0.00 0.00 28 1023.3
20220526165019 74 180 5.0 14.0 0.00 0.00 0.00 30 1023.4